< < Back
Terminal Aerodrome Forecast


Current Version              Previous Versions:   1  2  3  4  5  6  7  8  9  

Terminal Aerodrome Forecast

722
FTUS42 KILM 280538
TAFFLO
TAF
KFLO 280538Z 2806/2906 17002KT P6SM BKN080 BKN250
     FM280900 00000KT 3SM BR SCT100 BKN250
     FM281300 19006KT P6SM BKN250
     FM281800 16008KT P6SM VCTS SCT030CB BKN060
     FM290100 15004KT P6SM BKN250=



Latest METAR

570
SAUS70 KWBC 281600 RRG
MTRFLO
METAR KFLO 281553Z 15005KT 10SM FEW047 27/19 A3024 RMK AO2 SLP236
T02720194


USA.gov is the U.S. government's official web portal to all federal, state and local government web resources and services.